sensor_id;sensor_type;location;lat;lon;timestamp;temperature;humidity
5705;DHT22;2877;48.238;11.160;2023-02-15T00:00:11;-1.10;99.90
5705;DHT22;2877;48.238;11.160;2023-02-15T00:02:38;-1.10;99.90
5705;DHT22;2877;48.238;11.160;2023-02-15T00:05:03;-1.10;99.90
5705;DHT22;2877;48.238;11.160;2023-02-15T00:07:29;-1.10;99.90
5705;DHT22;2877;48.238;11.160;2023-02-15T00:09:55;-1.20;99.90
5705;DHT22;2877;48.238;11.160;2023-02-15T00:12:20;-1.20;99.90
5705;DHT22;2877;48.238;11.160;2023-02-15T00:14:46;-1.20;99.90
5705;DHT22;2877;48.238;11.160;2023-02-15T00:17:15;-1.20;99.90
5705;DHT22;2877;48.238;11.160;2023-02-15T00:19:40;-1.10;99.90
5705;DHT22;2877;48.238;11.160;2023-02-15T00:22:06;-1.10;99.90
5705;DHT22;2877;48.238;11.160;2023-02-15T00:24:32;-1.10;99.90
5705;DHT22;2877;48.238;11.160;2023-02-15T00:26:58;-1.10;99.90
5705;DHT22;2877;48.238;11.160;2023-02-15T00:29:24;-1.20;99.90
5705;DHT22;2877;48.238;11.160;2023-02-15T00:31:52;-1.20;99.90
5705;DHT22;2877;48.238;11.160;2023-02-15T00:34:20;-1.20;99.90
5705;DHT22;2877;48.238;11.160;2023-02-15T00:36:47;-1.20;99.90
5705;DHT22;2877;48.238;11.160;2023-02-15T00:39:13;-1.10;99.90
5705;DHT22;2877;48.238;11.160;2023-02-15T00:41:41;-1.20;99.90
5705;DHT22;2877;48.238;11.160;2023-02-15T00:44:07;-1.20;99.90
5705;DHT22;2877;48.238;11.160;2023-02-15T00:46:32;-1.20;99.90
5705;DHT22;2877;48.238;11.160;2023-02-15T00:48:58;-1.30;99.90
5705;DHT22;2877;48.238;11.160;2023-02-15T00:51:24;-1.30;99.90
5705;DHT22;2877;48.238;11.160;2023-02-15T00:53:50;-1.40;99.90
5705;DHT22;2877;48.238;11.160;2023-02-15T00:56:15;-1.40;99.90
5705;DHT22;2877;48.238;11.160;2023-02-15T00:58:41;-1.40;99.90
5705;DHT22;2877;48.238;11.160;2023-02-15T01:01:15;-1.30;99.90
5705;DHT22;2877;48.238;11.160;2023-02-15T01:03:42;-1.30;99.90
5705;DHT22;2877;48.238;11.160;2023-02-15T01:06:08;-1.40;99.90
5705;DHT22;2877;48.238;11.160;2023-02-15T01:08:34;-1.40;99.90
5705;DHT22;2877;48.238;11.160;2023-02-15T01:11:12;-1.40;99.90
5705;DHT22;2877;48.238;11.160;2023-02-15T01:13:38;-1.50;99.90
5705;DHT22;2877;48.238;11.160;2023-02-15T01:16:05;-1.50;99.90
5705;DHT22;2877;48.238;11.160;2023-02-15T01:18:31;-1.50;99.90
5705;DHT22;2877;48.238;11.160;2023-02-15T01:20:56;-1.40;99.90
5705;DHT22;2877;48.238;11.160;2023-02-15T01:23:23;-1.40;99.90
5705;DHT22;2877;48.238;11.160;2023-02-15T01:25:48;-1.40;99.90
5705;DHT22;2877;48.238;11.160;2023-02-15T01:28:14;-1.40;99.90
5705;DHT22;2877;48.238;11.160;2023-02-15T01:30:40;-1.40;99.90
5705;DHT22;2877;48.238;11.160;2023-02-15T01:33:06;-1.40;99.90
5705;DHT22;2877;48.238;11.160;2023-02-15T01:35:32;-1.40;99.90
5705;DHT22;2877;48.238;11.160;2023-02-15T01:37:57;-1.40;99.90
5705;DHT22;2877;48.238;11.160;2023-02-15T01:40:23;-1.50;99.90
5705;DHT22;2877;48.238;11.160;2023-02-15T01:42:53;-1.50;99.90
5705;DHT22;2877;48.238;11.160;2023-02-15T01:45:26;-1.50;99.90
5705;DHT22;2877;48.238;11.160;2023-02-15T01:50:43;-1.50;99.90
5705;DHT22;2877;48.238;11.160;2023-02-15T01:53:17;-1.50;99.90
5705;DHT22;2877;48.238;11.160;2023-02-15T01:55:55;-1.50;99.90
5705;DHT22;2877;48.238;11.160;2023-02-15T01:58:25;-1.50;99.90
5705;DHT22;2877;48.238;11.160;2023-02-15T02:00:51;-1.50;99.90
5705;DHT22;2877;48.238;11.160;2023-02-15T02:03:19;-1.50;99.90
5705;DHT22;2877;48.238;11.160;2023-02-15T02:05:49;-1.50;99.90
5705;DHT22;2877;48.238;11.160;2023-02-15T02:08:14;-1.50;99.90
5705;DHT22;2877;48.238;11.160;2023-02-15T02:10:40;-1.50;99.90
5705;DHT22;2877;48.238;11.160;2023-02-15T02:13:06;-1.50;99.90
5705;DHT22;2877;48.238;11.160;2023-02-15T02:16:13;-1.50;99.90
5705;DHT22;2877;48.238;11.160;2023-02-15T02:19:02;-1.50;99.90
5705;DHT22;2877;48.238;11.160;2023-02-15T02:27:29;-1.60;99.90
5705;DHT22;2877;48.238;11.160;2023-02-15T02:35:55;-1.50;99.90
5705;DHT22;2877;48.238;11.160;2023-02-15T02:38:28;-1.50;99.90
5705;DHT22;2877;48.238;11.160;2023-02-15T02:44:04;-1.50;99.90
5705;DHT22;2877;48.238;11.160;2023-02-15T02:49:11;-1.50;99.90
5705;DHT22;2877;48.238;11.160;2023-02-15T02:51:37;-1.50;99.90
5705;DHT22;2877;48.238;11.160;2023-02-15T02:54:05;-1.50;99.90
5705;DHT22;2877;48.238;11.160;2023-02-15T02:56:43;-1.50;99.90
5705;DHT22;2877;48.238;11.160;2023-02-15T02:59:16;-1.50;99.90
5705;DHT22;2877;48.238;11.160;2023-02-15T03:01:51;-1.60;99.90
5705;DHT22;2877;48.238;11.160;2023-02-15T03:04:27;-1.60;99.90
5705;DHT22;2877;48.238;11.160;2023-02-15T03:07:01;-1.60;99.90
5705;DHT22;2877;48.238;11.160;2023-02-15T03:09:41;-1.60;99.90
5705;DHT22;2877;48.238;11.160;2023-02-15T03:12:13;-1.70;99.90
5705;DHT22;2877;48.238;11.160;2023-02-15T03:14:40;-1.70;99.90
5705;DHT22;2877;48.238;11.160;2023-02-15T03:17:07;-1.60;99.90
5705;DHT22;2877;48.238;11.160;2023-02-15T03:19:35;-1.60;99.90
5705;DHT22;2877;48.238;11.160;2023-02-15T03:22:29;-1.60;99.90
5705;DHT22;2877;48.238;11.160;2023-02-15T03:24:58;-1.60;99.90
5705;DHT22;2877;48.238;11.160;2023-02-15T03:27:33;-1.60;99.90
5705;DHT22;2877;48.238;11.160;2023-02-15T03:30:02;-1.60;99.90
5705;DHT22;2877;48.238;11.160;2023-02-15T03:32:31;-1.60;99.90
5705;DHT22;2877;48.238;11.160;2023-02-15T03:34:57;-1.60;99.90
5705;DHT22;2877;48.238;11.160;2023-02-15T03:37:33;-1.50;99.90
5705;DHT22;2877;48.238;11.160;2023-02-15T03:40:19;-1.50;99.90
5705;DHT22;2877;48.238;11.160;2023-02-15T03:43:35;-1.40;99.90
5705;DHT22;2877;48.238;11.160;2023-02-15T03:46:12;-1.40;99.90
5705;DHT22;2877;48.238;11.160;2023-02-15T03:48:45;-1.30;99.90
5705;DHT22;2877;48.238;11.160;2023-02-15T03:51:17;-1.40;99.90
5705;DHT22;2877;48.238;11.160;2023-02-15T03:56:30;-1.50;99.90
5705;DHT22;2877;48.238;11.160;2023-02-15T03:58:55;-1.50;99.90
5705;DHT22;2877;48.238;11.160;2023-02-15T04:01:54;-1.50;99.90
5705;DHT22;2877;48.238;11.160;2023-02-15T04:04:37;-1.40;99.90
5705;DHT22;2877;48.238;11.160;2023-02-15T04:07:06;-1.40;99.90
5705;DHT22;2877;48.238;11.160;2023-02-15T04:09:32;-1.40;99.90
5705;DHT22;2877;48.238;11.160;2023-02-15T04:12:16;-1.50;99.90
5705;DHT22;2877;48.238;11.160;2023-02-15T04:14:42;-1.50;99.90
5705;DHT22;2877;48.238;11.160;2023-02-15T04:17:26;-1.50;99.90
5705;DHT22;2877;48.238;11.160;2023-02-15T04:19:52;-1.50;99.90
5705;DHT22;2877;48.238;11.160;2023-02-15T04:22:36;-1.60;99.90
5705;DHT22;2877;48.238;11.160;2023-02-15T04:25:20;-1.60;99.90
5705;DHT22;2877;48.238;11.160;2023-02-15T04:27:51;-1.50;99.90
5705;DHT22;2877;48.238;11.160;2023-02-15T04:30:21;-1.50;99.90
5705;DHT22;2877;48.238;11.160;2023-02-15T04:32:47;-1.50;99.90
5705;DHT22;2877;48.238;11.160;2023-02-15T04:35:13;-1.50;99.90
5705;DHT22;2877;48.238;11.160;2023-02-15T04:37:40;-1.50;99.90
5705;DHT22;2877;48.238;11.160;2023-02-15T04:40:07;-1.50;99.90
5705;DHT22;2877;48.238;11.160;2023-02-15T04:42:33;-1.50;99.90
5705;DHT22;2877;48.238;11.160;2023-02-15T04:44:59;-1.40;99.90
5705;DHT22;2877;48.238;11.160;2023-02-15T04:47:24;-1.50;99.90
5705;DHT22;2877;48.238;11.160;2023-02-15T04:49:50;-1.50;99.90
5705;DHT22;2877;48.238;11.160;2023-02-15T04:52:16;-1.50;99.90
5705;DHT22;2877;48.238;11.160;2023-02-15T04:54:43;-1.50;99.90
5705;DHT22;2877;48.238;11.160;2023-02-15T04:57:09;-1.50;99.90
5705;DHT22;2877;48.238;11.160;2023-02-15T04:59:35;-1.50;99.90
5705;DHT22;2877;48.238;11.160;2023-02-15T05:02:03;-1.40;99.90
5705;DHT22;2877;48.238;11.160;2023-02-15T05:04:29;-1.50;99.90
5705;DHT22;2877;48.238;11.160;2023-02-15T05:06:54;-1.50;99.90
5705;DHT22;2877;48.238;11.160;2023-02-15T05:09:20;-1.50;99.90
5705;DHT22;2877;48.238;11.160;2023-02-15T05:11:46;-1.50;99.90
5705;DHT22;2877;48.238;11.160;2023-02-15T05:14:11;-1.40;99.90
5705;DHT22;2877;48.238;11.160;2023-02-15T05:16:37;-1.50;99.90
5705;DHT22;2877;48.238;11.160;2023-02-15T05:19:02;-1.50;99.90
5705;DHT22;2877;48.238;11.160;2023-02-15T05:21:28;-1.40;99.90
5705;DHT22;2877;48.238;11.160;2023-02-15T05:23:54;-1.50;99.90
5705;DHT22;2877;48.238;11.160;2023-02-15T05:26:22;-1.50;99.90
5705;DHT22;2877;48.238;11.160;2023-02-15T05:29:06;-1.60;99.90
5705;DHT22;2877;48.238;11.160;2023-02-15T05:31:33;-1.70;99.90
5705;DHT22;2877;48.238;11.160;2023-02-15T05:33:59;-1.80;99.90
5705;DHT22;2877;48.238;11.160;2023-02-15T05:36:24;-1.80;99.90
5705;DHT22;2877;48.238;11.160;2023-02-15T05:38:50;-1.80;99.90
5705;DHT22;2877;48.238;11.160;2023-02-15T05:41:16;-1.80;99.90
5705;DHT22;2877;48.238;11.160;2023-02-15T05:43:41;-1.70;99.90
5705;DHT22;2877;48.238;11.160;2023-02-15T05:46:07;-1.50;99.90
5705;DHT22;2877;48.238;11.160;2023-02-15T05:48:34;-1.50;99.90
5705;DHT22;2877;48.238;11.160;2023-02-15T05:51:03;-1.60;99.90
5705;DHT22;2877;48.238;11.160;2023-02-15T05:53:31;-1.60;99.90
5705;DHT22;2877;48.238;11.160;2023-02-15T05:55:57;-1.70;99.90
5705;DHT22;2877;48.238;11.160;2023-02-15T05:58:29;-1.70;99.90
5705;DHT22;2877;48.238;11.160;2023-02-15T06:00:55;-1.70;99.90
5705;DHT22;2877;48.238;11.160;2023-02-15T06:03:21;-1.60;99.90
5705;DHT22;2877;48.238;11.160;2023-02-15T06:05:47;-1.50;99.90
5705;DHT22;2877;48.238;11.160;2023-02-15T06:08:13;-1.50;99.90
5705;DHT22;2877;48.238;11.160;2023-02-15T06:10:39;-1.50;99.90
5705;DHT22;2877;48.238;11.160;2023-02-15T06:13:05;-1.50;99.90
5705;DHT22;2877;48.238;11.160;2023-02-15T06:15:31;-1.50;99.90
5705;DHT22;2877;48.238;11.160;2023-02-15T06:17:57;-1.50;99.90
5705;DHT22;2877;48.238;11.160;2023-02-15T06:20:22;-1.50;99.90
5705;DHT22;2877;48.238;11.160;2023-02-15T06:22:48;-1.40;99.90
5705;DHT22;2877;48.238;11.160;2023-02-15T06:25:14;-1.30;99.90
5705;DHT22;2877;48.238;11.160;2023-02-15T06:27:41;-1.20;99.90
5705;DHT22;2877;48.238;11.160;2023-02-15T06:30:08;-1.20;99.90
5705;DHT22;2877;48.238;11.160;2023-02-15T06:32:35;-1.30;99.90
5705;DHT22;2877;48.238;11.160;2023-02-15T06:35:01;-1.20;99.90
5705;DHT22;2877;48.238;11.160;2023-02-15T06:37:26;-1.20;99.90
5705;DHT22;2877;48.238;11.160;2023-02-15T06:39:52;-1.10;99.90
5705;DHT22;2877;48.238;11.160;2023-02-15T06:42:18;-1.10;99.90
5705;DHT22;2877;48.238;11.160;2023-02-15T06:44:44;-1.20;99.90
5705;DHT22;2877;48.238;11.160;2023-02-15T06:47:10;-1.30;99.90
5705;DHT22;2877;48.238;11.160;2023-02-15T06:49:36;-1.30;99.90
5705;DHT22;2877;48.238;11.160;2023-02-15T06:52:03;-1.40;99.90
5705;DHT22;2877;48.238;11.160;2023-02-15T06:54:29;-1.40;99.90
5705;DHT22;2877;48.238;11.160;2023-02-15T06:56:54;-1.40;99.90
5705;DHT22;2877;48.238;11.160;2023-02-15T06:59:20;-1.50;99.90
5705;DHT22;2877;48.238;11.160;2023-02-15T07:01:46;-1.60;99.90
5705;DHT22;2877;48.238;11.160;2023-02-15T07:04:11;-1.60;99.90
5705;DHT22;2877;48.238;11.160;2023-02-15T07:06:39;-1.60;99.90
5705;DHT22;2877;48.238;11.160;2023-02-15T07:09:04;-1.60;99.90
5705;DHT22;2877;48.238;11.160;2023-02-15T07:11:30;-1.50;99.90
5705;DHT22;2877;48.238;11.160;2023-02-15T07:14:14;-1.50;99.90
5705;DHT22;2877;48.238;11.160;2023-02-15T07:16:40;-1.40;99.90
5705;DHT22;2877;48.238;11.160;2023-02-15T07:19:06;-1.30;99.90
5705;DHT22;2877;48.238;11.160;2023-02-15T07:21:33;-1.30;99.90
5705;DHT22;2877;48.238;11.160;2023-02-15T07:23:59;-1.20;99.90
5705;DHT22;2877;48.238;11.160;2023-02-15T07:26:25;-1.20;99.90
5705;DHT22;2877;48.238;11.160;2023-02-15T07:28:51;-1.10;99.90
5705;DHT22;2877;48.238;11.160;2023-02-15T07:31:16;-1.10;99.90
5705;DHT22;2877;48.238;11.160;2023-02-15T07:33:42;-1.10;99.90
5705;DHT22;2877;48.238;11.160;2023-02-15T07:36:07;-1.10;99.90
5705;DHT22;2877;48.238;11.160;2023-02-15T07:38:37;-1.10;99.90
5705;DHT22;2877;48.238;11.160;2023-02-15T07:41:06;-1.00;99.90
5705;DHT22;2877;48.238;11.160;2023-02-15T07:43:34;-1.00;99.90
5705;DHT22;2877;48.238;11.160;2023-02-15T07:46:01;-0.90;99.90
5705;DHT22;2877;48.238;11.160;2023-02-15T07:48:27;-1.00;99.90
5705;DHT22;2877;48.238;11.160;2023-02-15T07:50:52;-1.00;99.90
5705;DHT22;2877;48.238;11.160;2023-02-15T07:53:18;-0.90;99.90
5705;DHT22;2877;48.238;11.160;2023-02-15T07:55:44;-0.80;99.90
5705;DHT22;2877;48.238;11.160;2023-02-15T07:58:09;-0.70;99.90
5705;DHT22;2877;48.238;11.160;2023-02-15T08:00:35;-0.60;99.90
5705;DHT22;2877;48.238;11.160;2023-02-15T08:03:23;-0.50;99.90
5705;DHT22;2877;48.238;11.160;2023-02-15T08:05:56;-0.50;99.90
5705;DHT22;2877;48.238;11.160;2023-02-15T08:08:22;-0.60;99.90
5705;DHT22;2877;48.238;11.160;2023-02-15T08:13:50;-0.50;99.90
5705;DHT22;2877;48.238;11.160;2023-02-15T08:16:33;-0.60;99.90
5705;DHT22;2877;48.238;11.160;2023-02-15T08:19:02;-0.70;99.90
5705;DHT22;2877;48.238;11.160;2023-02-15T08:21:29;-0.80;99.90
5705;DHT22;2877;48.238;11.160;2023-02-15T08:23:55;-0.80;99.90
5705;DHT22;2877;48.238;11.160;2023-02-15T08:26:22;-0.70;99.90
5705;DHT22;2877;48.238;11.160;2023-02-15T08:28:47;-0.60;99.90
5705;DHT22;2877;48.238;11.160;2023-02-15T08:31:14;-0.50;99.90
5705;DHT22;2877;48.238;11.160;2023-02-15T08:33:44;-0.30;99.90
5705;DHT22;2877;48.238;11.160;2023-02-15T08:36:15;-0.20;99.90
5705;DHT22;2877;48.238;11.160;2023-02-15T08:38:41;-0.20;99.90
5705;DHT22;2877;48.238;11.160;2023-02-15T08:41:12;0.00;99.90
5705;DHT22;2877;48.238;11.160;2023-02-15T08:43:38;0.10;99.90
5705;DHT22;2877;48.238;11.160;2023-02-15T08:46:05;0.30;99.90
5705;DHT22;2877;48.238;11.160;2023-02-15T08:48:30;0.20;99.90
5705;DHT22;2877;48.238;11.160;2023-02-15T08:50:59;0.10;99.90
5705;DHT22;2877;48.238;11.160;2023-02-15T08:53:29;0.30;99.90
5705;DHT22;2877;48.238;11.160;2023-02-15T08:55:58;0.30;99.90
5705;DHT22;2877;48.238;11.160;2023-02-15T08:58:23;0.40;99.90
5705;DHT22;2877;48.238;11.160;2023-02-15T09:00:50;0.50;99.90
5705;DHT22;2877;48.238;11.160;2023-02-15T09:03:15;0.60;99.90
5705;DHT22;2877;48.238;11.160;2023-02-15T09:05:41;0.60;99.90
5705;DHT22;2877;48.238;11.160;2023-02-15T09:08:07;0.60;99.90
5705;DHT22;2877;48.238;11.160;2023-02-15T09:10:32;0.70;99.90
5705;DHT22;2877;48.238;11.160;2023-02-15T09:12:58;0.80;99.90
5705;DHT22;2877;48.238;11.160;2023-02-15T09:15:23;0.90;99.90
5705;DHT22;2877;48.238;11.160;2023-02-15T09:17:49;1.00;99.90
5705;DHT22;2877;48.238;11.160;2023-02-15T09:20:17;1.00;99.90
5705;DHT22;2877;48.238;11.160;2023-02-15T09:22:42;1.10;99.90
5705;DHT22;2877;48.238;11.160;2023-02-15T09:25:08;1.20;99.90
5705;DHT22;2877;48.238;11.160;2023-02-15T09:27:34;1.20;99.90
5705;DHT22;2877;48.238;11.160;2023-02-15T09:29:59;1.40;99.90
5705;DHT22;2877;48.238;11.160;2023-02-15T09:32:25;1.50;99.90
5705;DHT22;2877;48.238;11.160;2023-02-15T09:34:50;1.70;99.90
5705;DHT22;2877;48.238;11.160;2023-02-15T09:37:16;1.80;99.90
5705;DHT22;2877;48.238;11.160;2023-02-15T09:39:43;1.90;99.90
5705;DHT22;2877;48.238;11.160;2023-02-15T09:45:16;1.80;99.90
5705;DHT22;2877;48.238;11.160;2023-02-15T09:48:05;1.60;99.90
5705;DHT22;2877;48.238;11.160;2023-02-15T09:59:19;1.60;99.90
5705;DHT22;2877;48.238;11.160;2023-02-15T10:02:04;1.80;99.90
5705;DHT22;2877;48.238;11.160;2023-02-15T10:07:31;2.10;99.90
5705;DHT22;2877;48.238;11.160;2023-02-15T10:22:26;2.80;99.90
5705;DHT22;2877;48.238;11.160;2023-02-15T10:25:07;2.90;99.90
5705;DHT22;2877;48.238;11.160;2023-02-15T10:27:45;3.10;99.90
5705;DHT22;2877;48.238;11.160;2023-02-15T10:32:59;3.00;99.90
5705;DHT22;2877;48.238;11.160;2023-02-15T10:35:56;2.90;99.90
5705;DHT22;2877;48.238;11.160;2023-02-15T10:38:51;3.00;99.90
5705;DHT22;2877;48.238;11.160;2023-02-15T10:41:35;3.20;99.90
5705;DHT22;2877;48.238;11.160;2023-02-15T10:47:09;3.70;99.90
5705;DHT22;2877;48.238;11.160;2023-02-15T10:57:53;3.80;99.90
5705;DHT22;2877;48.238;11.160;2023-02-15T11:00:36;4.00;99.90
5705;DHT22;2877;48.238;11.160;2023-02-15T11:06:18;4.00;99.90
5705;DHT22;2877;48.238;11.160;2023-02-15T11:08:54;4.20;99.90
5705;DHT22;2877;48.238;11.160;2023-02-15T11:11:24;4.40;99.90
5705;DHT22;2877;48.238;11.160;2023-02-15T11:14:02;4.50;99.90
5705;DHT22;2877;48.238;11.160;2023-02-15T11:16:42;4.50;99.90
5705;DHT22;2877;48.238;11.160;2023-02-15T11:19:14;4.60;99.90
5705;DHT22;2877;48.238;11.160;2023-02-15T11:21:46;4.50;99.90
5705;DHT22;2877;48.238;11.160;2023-02-15T11:24:17;4.70;99.90
5705;DHT22;2877;48.238;11.160;2023-02-15T11:27:02;4.80;99.90
5705;DHT22;2877;48.238;11.160;2023-02-15T11:29:33;4.70;99.90
5705;DHT22;2877;48.238;11.160;2023-02-15T11:32:24;4.90;99.90
5705;DHT22;2877;48.238;11.160;2023-02-15T11:43:06;5.30;99.90
5705;DHT22;2877;48.238;11.160;2023-02-15T11:45:34;5.40;99.90
5705;DHT22;2877;48.238;11.160;2023-02-15T11:48:01;5.30;99.90
5705;DHT22;2877;48.238;11.160;2023-02-15T11:50:33;5.40;99.90
5705;DHT22;2877;48.238;11.160;2023-02-15T11:53:04;5.40;99.90
5705;DHT22;2877;48.238;11.160;2023-02-15T11:55:31;5.50;99.90
5705;DHT22;2877;48.238;11.160;2023-02-15T12:00:51;5.40;99.90
5705;DHT22;2877;48.238;11.160;2023-02-15T12:03:45;5.10;99.90
5705;DHT22;2877;48.238;11.160;2023-02-15T12:09:01;4.50;99.90
5705;DHT22;2877;48.238;11.160;2023-02-15T12:11:37;4.40;99.90
5705;DHT22;2877;48.238;11.160;2023-02-15T12:14:11;4.30;99.90
5705;DHT22;2877;48.238;11.160;2023-02-15T12:16:54;4.30;99.90
5705;DHT22;2877;48.238;11.160;2023-02-15T12:19:32;4.40;99.90
5705;DHT22;2877;48.238;11.160;2023-02-15T12:22:00;4.30;99.90
5705;DHT22;2877;48.238;11.160;2023-02-15T12:24:37;4.30;99.90
5705;DHT22;2877;48.238;11.160;2023-02-15T12:29:44;4.20;99.90
5705;DHT22;2877;48.238;11.160;2023-02-15T12:32:17;4.10;99.90
5705;DHT22;2877;48.238;11.160;2023-02-15T12:34:44;4.00;99.90
5705;DHT22;2877;48.238;11.160;2023-02-15T12:37:23;3.90;99.90
5705;DHT22;2877;48.238;11.160;2023-02-15T12:39:57;3.90;99.90
5705;DHT22;2877;48.238;11.160;2023-02-15T12:42:24;3.90;99.90
5705;DHT22;2877;48.238;11.160;2023-02-15T12:44:54;3.90;99.90
5705;DHT22;2877;48.238;11.160;2023-02-15T12:47:21;4.00;99.90
5705;DHT22;2877;48.238;11.160;2023-02-15T12:53:22;4.00;99.90
5705;DHT22;2877;48.238;11.160;2023-02-15T12:55:57;4.10;99.90
5705;DHT22;2877;48.238;11.160;2023-02-15T12:58:25;4.20;99.90
5705;DHT22;2877;48.238;11.160;2023-02-15T13:03:58;4.20;99.90
5705;DHT22;2877;48.238;11.160;2023-02-15T13:06:30;4.30;99.90
5705;DHT22;2877;48.238;11.160;2023-02-15T13:09:06;4.40;99.90
5705;DHT22;2877;48.238;11.160;2023-02-15T13:11:33;4.50;99.90
5705;DHT22;2877;48.238;11.160;2023-02-15T13:14:30;4.60;99.90
5705;DHT22;2877;48.238;11.160;2023-02-15T13:17:00;4.70;99.90
5705;DHT22;2877;48.238;11.160;2023-02-15T13:19:33;4.80;99.90
5705;DHT22;2877;48.238;11.160;2023-02-15T13:22:05;4.80;99.90
5705;DHT22;2877;48.238;11.160;2023-02-15T13:24:46;4.90;99.90
5705;DHT22;2877;48.238;11.160;2023-02-15T13:27:24;4.90;99.90
5705;DHT22;2877;48.238;11.160;2023-02-15T13:29:57;4.80;99.90
5705;DHT22;2877;48.238;11.160;2023-02-15T13:32:31;4.70;99.90
5705;DHT22;2877;48.238;11.160;2023-02-15T13:34:59;4.70;99.90
5705;DHT22;2877;48.238;11.160;2023-02-15T13:40:22;4.70;99.90
5705;DHT22;2877;48.238;11.160;2023-02-15T13:45:52;4.80;99.90
5705;DHT22;2877;48.238;11.160;2023-02-15T13:56:23;5.10;99.90
5705;DHT22;2877;48.238;11.160;2023-02-15T14:01:57;5.20;99.90
5705;DHT22;2877;48.238;11.160;2023-02-15T14:07:53;5.20;99.90
5705;DHT22;2877;48.238;11.160;2023-02-15T14:15:50;5.30;99.90
5705;DHT22;2877;48.238;11.160;2023-02-15T14:21:30;5.30;99.90
5705;DHT22;2877;48.238;11.160;2023-02-15T14:24:12;5.30;99.90
5705;DHT22;2877;48.238;11.160;2023-02-15T14:29:59;5.40;99.90
5705;DHT22;2877;48.238;11.160;2023-02-15T14:32:55;5.30;99.90
5705;DHT22;2877;48.238;11.160;2023-02-15T14:35:28;5.30;99.90
5705;DHT22;2877;48.238;11.160;2023-02-15T14:48:50;5.10;99.90
5705;DHT22;2877;48.238;11.160;2023-02-15T14:56:46;5.20;99.90
5705;DHT22;2877;48.238;11.160;2023-02-15T14:59:20;5.20;99.90
5705;DHT22;2877;48.238;11.160;2023-02-15T15:04:38;5.20;99.90
5705;DHT22;2877;48.238;11.160;2023-02-15T15:07:18;5.20;99.90
5705;DHT22;2877;48.238;11.160;2023-02-15T15:09:48;5.10;99.90
5705;DHT22;2877;48.238;11.160;2023-02-15T15:14:49;5.10;99.90
5705;DHT22;2877;48.238;11.160;2023-02-15T15:22:30;5.00;99.90
5705;DHT22;2877;48.238;11.160;2023-02-15T15:25:00;5.00;99.90
5705;DHT22;2877;48.238;11.160;2023-02-15T15:27:46;4.90;99.90
5705;DHT22;2877;48.238;11.160;2023-02-15T15:32:53;4.90;99.90
5705;DHT22;2877;48.238;11.160;2023-02-15T15:35:32;4.80;99.90
5705;DHT22;2877;48.238;11.160;2023-02-15T15:38:26;4.80;99.90
5705;DHT22;2877;48.238;11.160;2023-02-15T15:49:17;4.50;99.90
5705;DHT22;2877;48.238;11.160;2023-02-15T15:51:45;4.40;99.90
5705;DHT22;2877;48.238;11.160;2023-02-15T15:54:24;4.30;99.90
5705;DHT22;2877;48.238;11.160;2023-02-15T15:56:53;4.20;99.90
5705;DHT22;2877;48.238;11.160;2023-02-15T15:59:25;4.10;99.90
5705;DHT22;2877;48.238;11.160;2023-02-15T16:01:51;4.00;99.90
5705;DHT22;2877;48.238;11.160;2023-02-15T16:04:29;3.90;99.90
5705;DHT22;2877;48.238;11.160;2023-02-15T16:06:56;3.80;99.90
5705;DHT22;2877;48.238;11.160;2023-02-15T16:09:25;3.70;99.90
5705;DHT22;2877;48.238;11.160;2023-02-15T16:11:53;3.70;99.90
5705;DHT22;2877;48.238;11.160;2023-02-15T16:14:34;3.60;99.90
5705;DHT22;2877;48.238;11.160;2023-02-15T16:17:05;3.50;99.90
5705;DHT22;2877;48.238;11.160;2023-02-15T16:19:50;3.40;99.90
5705;DHT22;2877;48.238;11.160;2023-02-15T16:22:23;3.30;99.90
5705;DHT22;2877;48.238;11.160;2023-02-15T16:24:54;3.20;99.90
5705;DHT22;2877;48.238;11.160;2023-02-15T16:27:42;3.10;99.90
5705;DHT22;2877;48.238;11.160;2023-02-15T16:30:27;3.00;99.90
5705;DHT22;2877;48.238;11.160;2023-02-15T16:35:30;2.80;99.90
5705;DHT22;2877;48.238;11.160;2023-02-15T16:37:56;2.80;99.90
5705;DHT22;2877;48.238;11.160;2023-02-15T16:42:51;2.50;99.90
5705;DHT22;2877;48.238;11.160;2023-02-15T16:45:19;2.50;99.90
5705;DHT22;2877;48.238;11.160;2023-02-15T16:47:50;2.40;99.90
5705;DHT22;2877;48.238;11.160;2023-02-15T16:50:23;2.40;99.90
5705;DHT22;2877;48.238;11.160;2023-02-15T16:52:49;2.30;99.90
5705;DHT22;2877;48.238;11.160;2023-02-15T16:55:25;2.20;99.90
5705;DHT22;2877;48.238;11.160;2023-02-15T16:57:55;2.10;99.90
5705;DHT22;2877;48.238;11.160;2023-02-15T17:00:25;2.10;99.90
5705;DHT22;2877;48.238;11.160;2023-02-15T17:03:04;2.00;99.90
5705;DHT22;2877;48.238;11.160;2023-02-15T17:06:18;1.90;99.90
5705;DHT22;2877;48.238;11.160;2023-02-15T17:08:34;1.70;99.90
5705;DHT22;2877;48.238;11.160;2023-02-15T17:11:12;1.60;99.90
5705;DHT22;2877;48.238;11.160;2023-02-15T17:19:02;1.40;99.90
5705;DHT22;2877;48.238;11.160;2023-02-15T17:21:40;1.20;99.90
5705;DHT22;2877;48.238;11.160;2023-02-15T17:24:18;1.20;99.90
5705;DHT22;2877;48.238;11.160;2023-02-15T17:26:50;1.10;99.90
5705;DHT22;2877;48.238;11.160;2023-02-15T17:29:44;1.00;99.90
5705;DHT22;2877;48.238;11.160;2023-02-15T17:32:20;0.80;99.90
5705;DHT22;2877;48.238;11.160;2023-02-15T17:34:48;0.70;99.90
5705;DHT22;2877;48.238;11.160;2023-02-15T17:37:50;0.60;99.90
5705;DHT22;2877;48.238;11.160;2023-02-15T17:40:30;0.50;99.90
5705;DHT22;2877;48.238;11.160;2023-02-15T17:42:55;0.40;99.90
5705;DHT22;2877;48.238;11.160;2023-02-15T17:45:23;0.30;99.90
5705;DHT22;2877;48.238;11.160;2023-02-15T17:47:50;0.30;99.90
5705;DHT22;2877;48.238;11.160;2023-02-15T17:50:22;0.30;99.90
5705;DHT22;2877;48.238;11.160;2023-02-15T17:52:49;0.20;99.90
5705;DHT22;2877;48.238;11.160;2023-02-15T17:55:18;0.10;99.90
5705;DHT22;2877;48.238;11.160;2023-02-15T17:58:00;0.00;99.90
5705;DHT22;2877;48.238;11.160;2023-02-15T18:00:26;-0.10;99.90
5705;DHT22;2877;48.238;11.160;2023-02-15T18:03:11;-0.10;99.90
5705;DHT22;2877;48.238;11.160;2023-02-15T18:05:56;-0.10;99.90
5705;DHT22;2877;48.238;11.160;2023-02-15T18:08:41;-0.10;99.90
5705;DHT22;2877;48.238;11.160;2023-02-15T18:11:26;-0.20;99.90
5705;DHT22;2877;48.238;11.160;2023-02-15T18:14:07;-0.20;99.90
5705;DHT22;2877;48.238;11.160;2023-02-15T18:16:39;-0.30;99.90
5705;DHT22;2877;48.238;11.160;2023-02-15T18:19:20;-0.30;99.90
5705;DHT22;2877;48.238;11.160;2023-02-15T18:21:48;-0.40;99.90
5705;DHT22;2877;48.238;11.160;2023-02-15T18:24:20;-0.40;99.90
5705;DHT22;2877;48.238;11.160;2023-02-15T18:26:46;-0.50;99.90
5705;DHT22;2877;48.238;11.160;2023-02-15T18:29:12;-0.50;99.90
5705;DHT22;2877;48.238;11.160;2023-02-15T18:31:38;-0.50;99.90
5705;DHT22;2877;48.238;11.160;2023-02-15T18:34:04;-0.60;99.90
5705;DHT22;2877;48.238;11.160;2023-02-15T18:36:34;-0.70;99.90
5705;DHT22;2877;48.238;11.160;2023-02-15T18:39:02;-0.70;99.90
5705;DHT22;2877;48.238;11.160;2023-02-15T18:41:28;-0.80;99.90
5705;DHT22;2877;48.238;11.160;2023-02-15T18:43:53;-0.80;99.90
5705;DHT22;2877;48.238;11.160;2023-02-15T18:46:20;-0.90;99.90
5705;DHT22;2877;48.238;11.160;2023-02-15T18:48:46;-1.00;99.90
5705;DHT22;2877;48.238;11.160;2023-02-15T18:51:19;-1.00;99.90
5705;DHT22;2877;48.238;11.160;2023-02-15T18:53:46;-1.00;99.90
5705;DHT22;2877;48.238;11.160;2023-02-15T18:56:18;-1.00;99.90
5705;DHT22;2877;48.238;11.160;2023-02-15T18:58:44;-1.00;99.90
5705;DHT22;2877;48.238;11.160;2023-02-15T19:01:19;-0.90;99.90
5705;DHT22;2877;48.238;11.160;2023-02-15T19:03:47;-1.00;99.90
5705;DHT22;2877;48.238;11.160;2023-02-15T19:06:17;-1.00;99.90
5705;DHT22;2877;48.238;11.160;2023-02-15T19:08:44;-1.10;99.90